UACC/TSE METAR and TAF weather

Enter ICAO airport designator
Station Type Date Time Source
UACC METAR 2020/11/27 02:30 UTC NOAA

UACC 270230Z 07003MPS 8000 NSC M14/M16 Q1028 R04/19//65 NOSIG RMK QFE739/0985


Station Type Date Time Source
UACC Decoded METAR 2020/11/27 02:30 UTC NOAA

Astana, Kazakhstan (UACC) 51-12N 071-27E
Nov 26, 2020 - 09:30 PM EST / 2020.11.27 0230 UTC
Wind: from the ENE (070 degrees) at 7 MPH (6 KT):0
Visibility: 4 mile(s):0
Temperature: 6 F (-14 C)
Windchill: -5 F (-21 C):2
Dew Point: 3 F (-16 C)
Relative Humidity: 84%
Pressure (altimeter): 30.36 in. Hg (1028 hPa)
ob: UACC 270230Z 07003MPS 8000 NSC M14/M16 Q1028 R04/19//65 NOSIG RMK QFE739/0985
cycle: 2

Station Type Date Time Source
UACC TAF 2020/11/26 18:22 UTC NOAA

TAF UACC 261700Z 2618/2718 VRB02MPS 9999 SCT020 TXM06/2709Z TNM19/2622Z
TEMPO 2618/2704 3100 BR FEW003 BKN011
TEMPO 2704/2712 15004MPS -SN SCT011 BKN020

Example: see airport list